Time;durP1;ratioP1;P1;durP2;ratioP2;P2;SDS_P1;SDS_P2;PMS_P1;PMS_P2;Temp;Humidity;BMP_temperature;BMP_pressure;BME280_temperature;BME280_humidity;BME280_pressure;Samples;Min_cycle;Max_cycle;Signal;HPM_P1;HPM_P2
2022/04/27 00:01:49;;;;;;;;;;;17.20;57.00;;;;;;5026816;28;88710;-52
2022/04/27 00:04:14;;;;;;;;;;;17.20;56.90;;;;;;5028125;28;86202;-50
2022/04/27 00:06:40;;;;;;;;;;;17.10;57.00;;;;;;5027101;28;87314;-50
2022/04/27 00:09:06;;;;;;;;;;;17.10;57.00;;;;;;5027146;28;87471;-50
2022/04/27 00:11:32;;;;;;;;;;;17.10;56.90;;;;;;5026458;28;87885;-50
2022/04/27 00:14:00;;;;;;;;;;;17.10;57.00;;;;;;5029730;28;88088;-53
2022/04/27 00:16:27;;;;;;;;;;;17.10;57.00;;;;;;5027046;28;86926;-50
2022/04/27 00:18:52;;;;;;;;;;;17.10;57.00;;;;;;5027008;28;87996;-50
2022/04/27 00:21:18;;;;;;;;;;;17.10;56.90;;;;;;5027051;28;86877;-50
2022/04/27 00:23:43;;;;;;;;;;;17.00;56.90;;;;;;5026663;28;86851;-49
2022/04/27 00:26:09;;;;;;;;;;;17.00;56.90;;;;;;5026853;28;87899;-49
2022/04/27 00:28:35;;;;;;;;;;;17.00;56.90;;;;;;5027014;28;87038;-52
2022/04/27 00:31:01;;;;;;;;;;;17.00;56.90;;;;;;5026936;28;86878;-49
2022/04/27 00:33:27;;;;;;;;;;;17.00;57.00;;;;;;5026797;28;88164;-50
2022/04/27 00:35:52;;;;;;;;;;;16.90;57.00;;;;;;5028693;28;89869;-49
2022/04/27 00:38:18;;;;;;;;;;;17.00;56.90;;;;;;5026814;28;88690;-51
2022/04/27 00:40:44;;;;;;;;;;;16.90;56.90;;;;;;5026299;28;89069;-51
2022/04/27 00:43:12;;;;;;;;;;;16.90;56.80;;;;;;5026628;28;86888;-49
2022/04/27 00:45:38;;;;;;;;;;;16.90;56.90;;;;;;5026784;28;86927;-50
2022/04/27 00:48:04;;;;;;;;;;;16.90;56.90;;;;;;5026533;28;87683;-50
2022/04/27 00:50:29;;;;;;;;;;;16.90;57.00;;;;;;5026839;28;86779;-49
2022/04/27 00:52:55;;;;;;;;;;;16.80;57.00;;;;;;5027204;28;87397;-49
2022/04/27 00:55:21;;;;;;;;;;;16.80;56.80;;;;;;5026272;28;87655;-51
2022/04/27 00:57:47;;;;;;;;;;;16.80;56.90;;;;;;5029093;28;87054;-53
2022/04/27 01:00:14;;;;;;;;;;;16.80;56.90;;;;;;5025265;28;89229;-50
2022/04/27 01:02:40;;;;;;;;;;;16.80;56.90;;;;;;5026484;28;86832;-52
2022/04/27 01:05:11;;;;;;;;;;;16.70;56.80;;;;;;5026711;28;87155;-49
2022/04/27 01:07:40;;;;;;;;;;;16.70;57.00;;;;;;5024891;28;87550;-52
2022/04/27 01:10:06;;;;;;;;;;;16.70;57.00;;;;;;5026256;28;87010;-51
2022/04/27 01:12:32;;;;;;;;;;;16.70;57.00;;;;;;5026603;28;86938;-49
2022/04/27 01:14:58;;;;;;;;;;;16.70;57.00;;;;;;5025972;28;88327;-49
2022/04/27 01:17:24;;;;;;;;;;;16.60;57.00;;;;;;5026717;28;86160;-49
2022/04/27 01:19:50;;;;;;;;;;;16.60;57.00;;;;;;5028988;28;86854;-49
2022/04/27 01:22:15;;;;;;;;;;;16.60;56.90;;;;;;5026169;28;86860;-50
2022/04/27 01:24:44;;;;;;;;;;;16.60;57.00;;;;;;5025820;28;87789;-50
2022/04/27 01:27:10;;;;;;;;;;;16.60;57.10;;;;;;5025617;28;88357;-49
2022/04/27 01:29:36;;;;;;;;;;;16.60;57.00;;;;;;5026053;28;86856;-49
2022/04/27 01:32:02;;;;;;;;;;;16.60;57.10;;;;;;5026094;28;88267;-50
2022/04/27 01:34:28;;;;;;;;;;;16.50;57.00;;;;;;5025964;28;87630;-50
2022/04/27 01:36:55;;;;;;;;;;;16.50;57.10;;;;;;5029583;28;86824;-50
2022/04/27 01:39:23;;;;;;;;;;;16.50;57.20;;;;;;5029911;28;86939;-50
2022/04/27 01:41:49;;;;;;;;;;;16.50;57.20;;;;;;5031279;28;86882;-50
2022/04/27 01:44:15;;;;;;;;;;;16.40;57.10;;;;;;5029512;28;87380;-49
2022/04/27 01:46:40;;;;;;;;;;;16.40;57.10;;;;;;5028903;28;87774;-53
2022/04/27 01:49:06;;;;;;;;;;;16.40;57.10;;;;;;5029100;28;87850;-51
2022/04/27 01:54:16;;;;;;;;;;;16.40;57.30;;;;;;5029288;28;87166;-51
2022/04/27 01:56:45;;;;;;;;;;;16.40;57.30;;;;;;5029008;28;86981;-53
2022/04/27 01:59:12;;;;;;;;;;;16.30;57.10;;;;;;5028276;28;87899;-50
2022/04/27 02:01:38;;;;;;;;;;;16.30;57.20;;;;;;5030704;28;88580;-53
2022/04/27 02:04:03;;;;;;;;;;;16.20;57.30;;;;;;5028183;28;87044;-49
2022/04/27 02:06:29;;;;;;;;;;;16.30;57.30;;;;;;5028657;28;86922;-50
2022/04/27 02:08:55;;;;;;;;;;;16.30;57.30;;;;;;5028143;28;86844;-50
2022/04/27 02:11:24;;;;;;;;;;;16.20;57.30;;;;;;5027514;28;86883;-50
2022/04/27 02:13:54;;;;;;;;;;;16.20;57.30;;;;;;5026976;28;88460;-53
2022/04/27 02:16:23;;;;;;;;;;;16.20;58.10;;;;;;5028017;28;86867;-52
2022/04/27 02:18:49;;;;;;;;;;;16.10;57.40;;;;;;5028044;28;87369;-49
2022/04/27 02:21:15;;;;;;;;;;;16.10;57.50;;;;;;5027823;28;87675;-50
2022/04/27 02:23:41;;;;;;;;;;;16.10;57.40;;;;;;5030844;28;86855;-50
2022/04/27 02:26:07;;;;;;;;;;;16.10;57.40;;;;;;5027243;28;88540;-49
2022/04/27 02:28:33;;;;;;;;;;;16.10;57.50;;;;;;5027919;28;86862;-49
2022/04/27 02:30:59;;;;;;;;;;;16.00;57.40;;;;;;5028122;28;87988;-50
2022/04/27 02:33:24;;;;;;;;;;;16.00;57.40;;;;;;5027322;28;87697;-49
2022/04/27 02:35:50;;;;;;;;;;;16.00;57.50;;;;;;5026541;28;86901;-49
2022/04/27 02:38:15;;;;;;;;;;;16.00;57.60;;;;;;5026972;28;88163;-49
2022/04/27 02:40:41;;;;;;;;;;;16.00;57.50;;;;;;5027075;28;88682;-49
2022/04/27 02:43:07;;;;;;;;;;;16.00;57.50;;;;;;5027499;28;86904;-49
2022/04/27 02:45:32;;;;;;;;;;;16.00;57.50;;;;;;5029608;28;88433;-49
2022/04/27 02:47:59;;;;;;;;;;;15.90;57.40;;;;;;5027689;28;86846;-49
2022/04/27 02:53:08;;;;;;;;;;;15.90;57.50;;;;;;5027195;28;87175;-50
2022/04/27 02:55:34;;;;;;;;;;;15.90;57.50;;;;;;5028112;28;86073;-49
2022/04/27 02:58:00;;;;;;;;;;;15.90;57.50;;;;;;5008169;28;180281;-49
2022/04/27 03:00:26;;;;;;;;;;;15.90;57.50;;;;;;5023441;28;86964;-50
2022/04/27 03:02:52;;;;;;;;;;;15.80;57.50;;;;;;5027879;28;87803;-49
2022/04/27 03:05:17;;;;;;;;;;;15.80;57.40;;;;;;5028192;28;88893;-50
2022/04/27 03:07:43;;;;;;;;;;;15.70;57.60;;;;;;5030597;28;87456;-50
2022/04/27 03:10:08;;;;;;;;;;;15.70;57.50;;;;;;5027480;28;87158;-49
2022/04/27 03:12:35;;;;;;;;;;;15.70;57.50;;;;;;5027638;28;87491;-49
2022/04/27 03:15:00;;;;;;;;;;;15.70;57.50;;;;;;5027513;28;86855;-50
2022/04/27 03:17:26;;;;;;;;;;;15.70;57.50;;;;;;5027434;28;88043;-52
2022/04/27 03:19:52;;;;;;;;;;;15.70;57.60;;;;;;5027821;28;87872;-51
2022/04/27 03:22:18;;;;;;;;;;;15.60;57.60;;;;;;5027642;28;87000;-50
2022/04/27 03:24:43;;;;;;;;;;;15.70;57.60;;;;;;5027337;28;87855;-51
2022/04/27 03:27:09;;;;;;;;;;;15.70;57.60;;;;;;5026190;28;88819;-50
2022/04/27 03:29:34;;;;;;;;;;;15.60;57.40;;;;;;5030218;28;86907;-49
2022/04/27 03:32:00;;;;;;;;;;;15.60;58.20;;;;;;5027054;28;87606;-50
2022/04/27 03:34:26;;;;;;;;;;;15.60;57.50;;;;;;5027490;28;86815;-52
2022/04/27 03:36:51;;;;;;;;;;;15.60;57.40;;;;;;5027255;28;88169;-49
2022/04/27 03:39:17;;;;;;;;;;;15.60;57.60;;;;;;5026666;28;88676;-49
2022/04/27 03:41:42;;;;;;;;;;;15.60;57.50;;;;;;5027074;28;86797;-49
2022/04/27 03:44:08;;;;;;;;;;;15.60;57.60;;;;;;5027839;28;86773;-49
2022/04/27 03:46:33;;;;;;;;;;;15.50;57.50;;;;;;5026557;28;89073;-51
2022/04/27 03:48:59;;;;;;;;;;;15.50;57.50;;;;;;5026840;28;86900;-52
2022/04/27 03:51:24;;;;;;;;;;;15.50;57.50;;;;;;5028937;28;87867;-51
2022/04/27 03:53:51;;;;;;;;;;;15.50;57.50;;;;;;5027254;28;86937;-50
2022/04/27 03:56:16;;;;;;;;;;;15.50;57.60;;;;;;5027279;28;87814;-50
2022/04/27 03:58:42;;;;;;;;;;;15.50;57.50;;;;;;5025361;28;88647;-49
2022/04/27 04:01:07;;;;;;;;;;;15.50;57.50;;;;;;5026827;28;86927;-49
2022/04/27 04:03:33;;;;;;;;;;;15.40;57.60;;;;;;5026795;28;86915;-51
2022/04/27 04:05:59;;;;;;;;;;;15.40;57.60;;;;;;5026314;28;88470;-54
2022/04/27 04:08:24;;;;;;;;;;;15.40;57.60;;;;;;5027759;28;86565;-53
2022/04/27 04:10:50;;;;;;;;;;;15.40;57.50;;;;;;5029522;28;86845;-49
2022/04/27 04:13:15;;;;;;;;;;;15.40;57.60;;;;;;5026595;28;86879;-50
2022/04/27 04:15:41;;;;;;;;;;;15.40;57.50;;;;;;5025982;28;88129;-49
2022/04/27 04:18:06;;;;;;;;;;;15.30;57.50;;;;;;5026316;28;87425;-50
2022/04/27 04:20:32;;;;;;;;;;;15.30;57.50;;;;;;5026524;28;86761;-51
2022/04/27 04:22:58;;;;;;;;;;;15.30;57.50;;;;;;5026495;28;87966;-51
2022/04/27 04:30:52;;;;;;;;;;;15.30;57.50;;;;;;5026857;28;86912;-51
2022/04/27 04:33:17;;;;;;;;;;;15.30;57.50;;;;;;5029809;28;87181;-49
2022/04/27 04:35:43;;;;;;;;;;;15.20;57.70;;;;;;5026260;28;87061;-49
2022/04/27 04:38:08;;;;;;;;;;;15.20;57.60;;;;;;5025988;28;87670;-50
2022/04/27 04:40:34;;;;;;;;;;;15.20;57.60;;;;;;5025571;28;87847;-50
2022/04/27 04:42:59;;;;;;;;;;;15.20;57.60;;;;;;5025625;28;86915;-51
2022/04/27 04:45:25;;;;;;;;;;;15.20;57.60;;;;;;5025723;28;88478;-51
2022/04/27 04:47:51;;;;;;;;;;;15.20;57.70;;;;;;5026046;28;86914;-49
2022/04/27 04:50:17;;;;;;;;;;;15.20;57.70;;;;;;5026282;28;87914;-49
2022/04/27 04:52:43;;;;;;;;;;;15.10;57.60;;;;;;5025654;28;87599;-49
2022/04/27 04:55:09;;;;;;;;;;;15.10;57.80;;;;;;5028968;28;86957;-50
2022/04/27 04:57:34;;;;;;;;;;;15.10;57.70;;;;;;5025782;28;87519;-50
2022/04/27 05:00:00;;;;;;;;;;;15.10;57.80;;;;;;5026045;28;86833;-51
2022/04/27 05:02:25;;;;;;;;;;;15.10;57.80;;;;;;5026390;28;86979;-49
2022/04/27 05:04:51;;;;;;;;;;;15.10;57.80;;;;;;5024994;28;88387;-49
2022/04/27 05:07:18;;;;;;;;;;;15.10;57.70;;;;;;5025875;28;86675;-51
2022/04/27 05:09:44;;;;;;;;;;;15.10;57.80;;;;;;5025864;28;86881;-51
2022/04/27 05:12:09;;;;;;;;;;;15.10;57.70;;;;;;5025355;28;88535;-50
2022/04/27 05:14:35;;;;;;;;;;;15.10;57.70;;;;;;5025785;28;86940;-50
2022/04/27 05:17:00;;;;;;;;;;;15.10;57.80;;;;;;5028792;28;87054;-52
2022/04/27 05:19:26;;;;;;;;;;;15.10;57.70;;;;;;5026076;28;86877;-49
2022/04/27 05:21:51;;;;;;;;;;;15.10;57.80;;;;;;5026668;28;86463;-49
2022/04/27 05:24:17;;;;;;;;;;;15.00;57.90;;;;;;5025222;28;88011;-49
2022/04/27 05:26:43;;;;;;;;;;;15.00;57.80;;;;;;5025869;28;86932;-49
2022/04/27 05:31:55;;;;;;;;;;;15.10;57.80;;;;;;5025468;28;86884;-52
2022/04/27 05:34:21;;;;;;;;;;;15.10;57.80;;;;;;5025485;28;86907;-49
2022/04/27 05:36:47;;;;;;;;;;;15.10;57.80;;;;;;5025499;28;88457;-53
2022/04/27 05:39:12;;;;;;;;;;;15.10;57.70;;;;;;5028011;28;88215;-50
2022/04/27 05:41:38;;;;;;;;;;;15.10;57.90;;;;;;5025395;28;88030;-50
2022/04/27 05:44:07;;;;;;;;;;;15.10;57.80;;;;;;5025063;28;88747;-49
2022/04/27 05:46:36;;;;;;;;;;;15.10;57.80;;;;;;5026478;28;86517;-50
2022/04/27 05:49:01;;;;;;;;;;;15.10;57.80;;;;;;5025727;28;86921;-52
2022/04/27 05:51:27;;;;;;;;;;;15.10;57.80;;;;;;5025276;28;86998;-49
2022/04/27 05:53:53;;;;;;;;;;;15.10;57.80;;;;;;5024579;28;87958;-50
2022/04/27 05:56:19;;;;;;;;;;;15.10;57.70;;;;;;5025031;28;89340;-49
2022/04/27 05:58:45;;;;;;;;;;;15.10;57.70;;;;;;5024419;28;88649;-50
2022/04/27 06:01:11;;;;;;;;;;;15.10;57.70;;;;;;5028232;28;86959;-51
2022/04/27 06:03:37;;;;;;;;;;;15.10;57.80;;;;;;5024983;28;87267;-53
2022/04/27 06:06:03;;;;;;;;;;;15.10;57.90;;;;;;5025266;28;86908;-49
2022/04/27 06:08:28;;;;;;;;;;;15.10;58.00;;;;;;5025417;28;86791;-50
2022/04/27 06:10:54;;;;;;;;;;;15.10;58.00;;;;;;5025111;28;87846;-50
2022/04/27 06:13:19;;;;;;;;;;;15.10;58.10;;;;;;5024990;28;86847;-50
2022/04/27 06:15:45;;;;;;;;;;;15.10;58.00;;;;;;5024974;28;87769;-49
2022/04/27 06:18:10;;;;;;;;;;;15.10;58.00;;;;;;5023934;28;89315;-51
2022/04/27 06:20:36;;;;;;;;;;;15.10;58.00;;;;;;5028650;28;86882;-52
2022/04/27 06:23:02;;;;;;;;;;;15.10;58.10;;;;;;5028063;28;87723;-51
2022/04/27 06:25:27;;;;;;;;;;;15.10;58.10;;;;;;5028223;28;86930;-49
2022/04/27 06:27:53;;;;;;;;;;;15.10;58.10;;;;;;5028395;28;88071;-49
2022/04/27 06:30:18;;;;;;;;;;;15.10;58.20;;;;;;5028074;28;87507;-50
2022/04/27 06:32:44;;;;;;;;;;;15.10;58.20;;;;;;5028342;28;86875;-49
2022/04/27 06:35:13;;;;;;;;;;;15.10;58.30;;;;;;5028587;28;87037;-50
2022/04/27 06:37:41;;;;;;;;;;;15.10;58.30;;;;;;5028089;28;88108;-50
2022/04/27 06:40:08;;;;;;;;;;;15.10;58.40;;;;;;5028309;28;86941;-50
2022/04/27 06:42:34;;;;;;;;;;;15.10;58.30;;;;;;5030090;28;87759;-50
2022/04/27 06:45:00;;;;;;;;;;;15.10;59.00;;;;;;5028445;28;86836;-49
2022/04/27 06:47:26;;;;;;;;;;;15.10;58.40;;;;;;5028029;28;88551;-49
2022/04/27 06:49:51;;;;;;;;;;;15.10;58.40;;;;;;5027907;28;87496;-52
2022/04/27 06:52:17;;;;;;;;;;;15.10;58.40;;;;;;5028423;28;86859;-49
2022/04/27 06:54:42;;;;;;;;;;;15.10;58.40;;;;;;5028076;28;87395;-49
2022/04/27 06:57:08;;;;;;;;;;;15.20;58.50;;;;;;5027523;28;87868;-52
2022/04/27 06:59:33;;;;;;;;;;;15.10;58.50;;;;;;5028344;28;86213;-50
2022/04/27 07:01:59;;;;;;;;;;;15.10;58.60;;;;;;5027893;28;87159;-49
2022/04/27 07:04:25;;;;;;;;;;;15.10;58.60;;;;;;5030213;28;88637;-51
2022/04/27 07:06:50;;;;;;;;;;;15.20;58.60;;;;;;5027156;28;87777;-51
2022/04/27 07:09:16;;;;;;;;;;;15.10;58.70;;;;;;5027278;28;88443;-51
2022/04/27 07:11:42;;;;;;;;;;;15.10;58.80;;;;;;5027685;28;87041;-50
2022/04/27 07:14:08;;;;;;;;;;;15.10;58.80;;;;;;5027663;28;88134;-49
2022/04/27 07:16:34;;;;;;;;;;;15.10;58.70;;;;;;5027274;28;88795;-49
2022/04/27 07:18:59;;;;;;;;;;;15.20;59.00;;;;;;5027799;28;86759;-49
2022/04/27 07:21:25;;;;;;;;;;;15.10;58.80;;;;;;5027772;28;86865;-49
2022/04/27 07:23:51;;;;;;;;;;;15.10;58.80;;;;;;5027643;28;88005;-51
2022/04/27 07:26:16;;;;;;;;;;;15.10;58.80;;;;;;5030184;28;86892;-50
2022/04/27 07:28:42;;;;;;;;;;;15.10;58.80;;;;;;5027062;28;87661;-50
2022/04/27 07:31:09;;;;;;;;;;;15.20;58.90;;;;;;5026961;28;88221;-49
2022/04/27 07:33:34;;;;;;;;;;;15.10;59.10;;;;;;5025931;28;89015;-49
2022/04/27 07:36:00;;;;;;;;;;;15.10;58.90;;;;;;5027247;28;86937;-50
2022/04/27 07:38:27;;;;;;;;;;;15.10;59.00;;;;;;5027179;28;86905;-49
2022/04/27 07:40:53;;;;;;;;;;;15.20;59.00;;;;;;5027188;28;86913;-49
2022/04/27 07:43:18;;;;;;;;;;;15.20;59.00;;;;;;5026846;28;88555;-49
2022/04/27 07:45:44;;;;;;;;;;;15.20;58.90;;;;;;5027160;28;86758;-49
2022/04/27 07:48:12;;;;;;;;;;;15.20;59.00;;;;;;5029998;28;87154;-49
2022/04/27 07:50:39;;;;;;;;;;;15.10;59.00;;;;;;5026897;28;86901;-49
2022/04/27 07:53:04;;;;;;;;;;;15.20;59.10;;;;;;5027064;28;87362;-49
2022/04/27 07:55:30;;;;;;;;;;;15.20;59.00;;;;;;5026039;28;88278;-49
2022/04/27 07:57:56;;;;;;;;;;;15.20;59.00;;;;;;5026221;28;86962;-50
2022/04/27 08:00:21;;;;;;;;;;;15.20;59.00;;;;;;5027145;28;86900;-50
2022/04/27 08:02:48;;;;;;;;;;;15.20;59.00;;;;;;5026502;28;87668;-49
2022/04/27 08:05:16;;;;;;;;;;;15.20;59.10;;;;;;5026634;28;86908;-50
2022/04/27 08:07:46;;;;;;;;;;;15.20;59.10;;;;;;5029271;28;87052;-49
2022/04/27 08:10:13;;;;;;;;;;;15.20;59.00;;;;;;5026738;28;86766;-50
2022/04/27 08:12:39;;;;;;;;;;;15.20;59.10;;;;;;5027143;28;87984;-49
2022/04/27 08:15:05;;;;;;;;;;;15.20;59.00;;;;;;5026248;28;87809;-49
2022/04/27 08:17:30;;;;;;;;;;;15.30;59.10;;;;;;5027057;28;87178;-50
2022/04/27 08:21:13;;;;;;;;;;;15.30;59.00;;;;;;5026302;28;87829;-50
2022/04/27 08:22:41;;;;;;;;;;;15.30;59.10;;;;;;5026431;28;88170;-49
2022/04/27 08:25:07;;;;;;;;;;;15.30;59.10;;;;;;5025847;28;86874;-51
2022/04/27 08:27:33;;;;;;;;;;;15.30;59.10;;;;;;5026454;28;87081;-49
2022/04/27 08:29:58;;;;;;;;;;;15.30;59.10;;;;;;5029105;28;88432;-50
2022/04/27 08:32:24;;;;;;;;;;;15.30;59.10;;;;;;5026703;28;86844;-50
2022/04/27 08:34:49;;;;;;;;;;;15.30;59.10;;;;;;5025961;28;88488;-50
2022/04/27 08:37:15;;;;;;;;;;;15.30;59.10;;;;;;5027166;28;86154;-50
2022/04/27 08:39:41;;;;;;;;;;;15.30;59.00;;;;;;5026455;28;87136;-50
2022/04/27 08:42:06;;;;;;;;;;;15.30;58.90;;;;;;5025915;28;88306;-49
2022/04/27 08:44:32;;;;;;;;;;;15.30;58.80;;;;;;5025269;28;87801;-51
2022/04/27 08:46:58;;;;;;;;;;;15.40;58.90;;;;;;5026155;28;88068;-49
2022/04/27 08:49:23;;;;;;;;;;;15.30;58.90;;;;;;5025373;28;87504;-51
2022/04/27 08:51:49;;;;;;;;;;;15.30;59.00;;;;;;5029230;28;86940;-50
2022/04/27 08:54:15;;;;;;;;;;;15.40;59.20;;;;;;5025658;28;88530;-50
2022/04/27 08:56:41;;;;;;;;;;;15.40;59.20;;;;;;5025883;28;86973;-50
2022/04/27 08:59:08;;;;;;;;;;;15.40;59.30;;;;;;5026250;28;86888;-53
2022/04/27 09:01:34;;;;;;;;;;;15.40;59.20;;;;;;5026236;28;88135;-50
2022/04/27 09:04:19;;;;;;;;;;;15.40;59.40;;;;;;5026228;28;86879;-49
2022/04/27 09:06:47;;;;;;;;;;;15.40;59.20;;;;;;5025337;28;86777;-50
2022/04/27 09:09:31;;;;;;;;;;;15.40;59.10;;;;;;5024907;28;88732;-49
2022/04/27 09:11:56;;;;;;;;;;;15.40;59.20;;;;;;5025919;28;86912;-50
2022/04/27 09:14:34;;;;;;;;;;;15.40;59.20;;;;;;5028486;28;88307;-49
2022/04/27 09:22:43;;;;;;;;;;;15.40;59.10;;;;;;5022436;28;86903;-50
2022/04/27 09:25:08;;;;;;;;;;;15.50;59.20;;;;;;5026050;28;86901;-51
2022/04/27 09:27:34;;;;;;;;;;;15.50;59.20;;;;;;5026311;28;86968;-49
2022/04/27 09:30:01;;;;;;;;;;;15.50;59.20;;;;;;5025453;28;87668;-51
2022/04/27 09:32:27;;;;;;;;;;;15.50;59.20;;;;;;5025923;28;87086;-49
2022/04/27 09:34:53;;;;;;;;;;;15.50;59.30;;;;;;5025153;28;87883;-49
2022/04/27 09:37:20;;;;;;;;;;;15.60;59.30;;;;;;5028196;28;88745;-49
2022/04/27 09:39:47;;;;;;;;;;;15.60;59.20;;;;;;5025470;28;87089;-49
2022/04/27 09:42:14;;;;;;;;;;;15.60;59.30;;;;;;5025220;28;88468;-50
2022/04/27 09:44:40;;;;;;;;;;;15.60;59.30;;;;;;5025272;28;86941;-50
2022/04/27 09:47:06;;;;;;;;;;;15.60;59.30;;;;;;5025478;28;87071;-52
2022/04/27 09:49:39;;;;;;;;;;;15.70;59.30;;;;;;5025294;28;86917;-51
2022/04/27 09:52:06;;;;;;;;;;;15.60;59.30;;;;;;5025899;28;86055;-52
2022/04/27 09:54:34;;;;;;;;;;;15.70;59.40;;;;;;5025297;28;86866;-49
2022/04/27 09:57:03;;;;;;;;;;;15.70;59.40;;;;;;5027165;28;88422;-50
2022/04/27 09:59:35;;;;;;;;;;;15.70;59.40;;;;;;5031116;28;87957;-51
2022/04/27 10:02:05;;;;;;;;;;;15.70;59.30;;;;;;5028405;28;87773;-50
2022/04/27 10:04:30;;;;;;;;;;;15.80;59.30;;;;;;5028845;28;86858;-49
2022/04/27 10:07:00;;;;;;;;;;;15.80;59.20;;;;;;5028636;28;87984;-50
2022/04/27 10:09:27;;;;;;;;;;;15.80;59.20;;;;;;5028497;28;87948;-50
2022/04/27 10:12:03;;;;;;;;;;;15.80;59.20;;;;;;5028602;28;86881;-49
2022/04/27 10:14:29;;;;;;;;;;;15.80;59.30;;;;;;5028492;28;87137;-52
2022/04/27 10:16:55;;;;;;;;;;;15.90;59.40;;;;;;5027746;28;86815;-49
2022/04/27 10:19:21;;;;;;;;;;;15.90;59.30;;;;;;5031312;28;86938;-50
2022/04/27 10:21:57;;;;;;;;;;;15.90;59.20;;;;;;5028042;28;87748;-50
2022/04/27 10:24:35;;;;;;;;;;;15.90;59.20;;;;;;5028043;28;87801;-50
2022/04/27 10:27:20;;;;;;;;;;;15.90;59.30;;;;;;5028463;28;88710;-53
2022/04/27 10:29:51;;;;;;;;;;;16.00;59.30;;;;;;5028346;28;87758;-50
2022/04/27 10:32:34;;;;;;;;;;;16.10;59.30;;;;;;5028161;28;86911;-49
2022/04/27 10:35:11;;;;;;;;;;;16.10;59.30;;;;;;5028268;28;87095;-50
2022/04/27 10:37:50;;;;;;;;;;;16.10;59.20;;;;;;5027733;28;87878;-51
2022/04/27 10:40:29;;;;;;;;;;;16.10;59.20;;;;;;5028436;28;86903;-51
2022/04/27 10:43:07;;;;;;;;;;;16.10;59.20;;;;;;5031187;28;87374;-50
2022/04/27 10:45:34;;;;;;;;;;;16.10;59.20;;;;;;5028046;28;86962;-50
2022/04/27 10:48:03;;;;;;;;;;;16.10;59.20;;;;;;5028085;28;87096;-50
2022/04/27 10:50:30;;;;;;;;;;;16.20;59.20;;;;;;5026915;28;89863;-50
2022/04/27 10:52:57;;;;;;;;;;;16.20;59.20;;;;;;5028077;28;86879;-53
2022/04/27 10:55:35;;;;;;;;;;;16.20;59.20;;;;;;5027910;28;87833;-54
2022/04/27 10:58:14;;;;;;;;;;;16.20;59.80;;;;;;5027315;28;87436;-51
2022/04/27 11:01:01;;;;;;;;;;;16.30;59.20;;;;;;5027878;28;86883;-51
2022/04/27 11:03:30;;;;;;;;;;;16.30;59.10;;;;;;5027820;28;88125;-49
2022/04/27 11:05:57;;;;;;;;;;;16.40;59.10;;;;;;5030663;28;86885;-50
2022/04/27 11:08:34;;;;;;;;;;;16.30;59.00;;;;;;5027829;28;88001;-50
2022/04/27 11:11:06;;;;;;;;;;;16.40;59.10;;;;;;5027318;28;88687;-50
2022/04/27 11:13:34;;;;;;;;;;;16.40;59.00;;;;;;5027617;28;86866;-51
2022/04/27 11:16:07;;;;;;;;;;;16.40;59.00;;;;;;5027309;28;87833;-50
2022/04/27 11:18:51;;;;;;;;;;;16.40;59.00;;;;;;5027366;28;87646;-49
2022/04/27 11:21:17;;;;;;;;;;;16.50;59.00;;;;;;5027458;28;87016;-50
2022/04/27 11:23:43;;;;;;;;;;;16.50;59.00;;;;;;5027941;28;86929;-51
2022/04/27 11:26:09;;;;;;;;;;;16.50;59.00;;;;;;5027101;28;87688;-51
2022/04/27 11:28:36;;;;;;;;;;;16.50;59.00;;;;;;5030434;28;87236;-50
2022/04/27 11:31:01;;;;;;;;;;;16.50;59.00;;;;;;5026861;28;88351;-50
2022/04/27 11:33:27;;;;;;;;;;;16.60;59.00;;;;;;5028144;28;86210;-50
2022/04/27 11:35:53;;;;;;;;;;;16.60;58.90;;;;;;5027551;28;86939;-50
2022/04/27 11:38:19;;;;;;;;;;;16.60;58.90;;;;;;5027035;28;87740;-50
2022/04/27 11:40:45;;;;;;;;;;;16.70;58.90;;;;;;5026814;28;88115;-52
2022/04/27 11:43:11;;;;;;;;;;;16.70;58.90;;;;;;5027553;28;87709;-50
2022/04/27 11:45:36;;;;;;;;;;;16.70;58.90;;;;;;5026761;28;88635;-51
2022/04/27 11:48:03;;;;;;;;;;;16.70;58.90;;;;;;5027766;28;87168;-50
2022/04/27 11:50:30;;;;;;;;;;;16.70;58.90;;;;;;5029609;28;87107;-50
2022/04/27 11:53:00;;;;;;;;;;;16.80;58.80;;;;;;5027217;28;86809;-50
2022/04/27 11:55:25;;;;;;;;;;;16.80;58.80;;;;;;5027008;28;87048;-51
2022/04/27 11:57:51;;;;;;;;;;;16.90;58.70;;;;;;5026656;28;87898;-52
2022/04/27 12:00:24;;;;;;;;;;;16.90;58.70;;;;;;5026989;28;87036;-49
2022/04/27 12:02:49;;;;;;;;;;;16.90;58.70;;;;;;5027065;28;88212;-50
2022/04/27 12:05:15;;;;;;;;;;;16.90;58.60;;;;;;5025783;28;89852;-52
2022/04/27 12:07:42;;;;;;;;;;;17.00;58.60;;;;;;5026863;28;86861;-52
2022/04/27 12:10:10;;;;;;;;;;;17.00;58.60;;;;;;5026740;28;88184;-51
2022/04/27 12:12:39;;;;;;;;;;;17.00;58.60;;;;;;5029223;28;88370;-50
2022/04/27 12:17:50;;;;;;;;;;;17.10;58.60;;;;;;5035685;22;88802;-50
2022/04/27 12:20:23;;;;;;;;;;;17.10;58.60;;;;;;5026741;28;86848;-49
2022/04/27 12:22:55;;;;;;;;;;;17.10;58.60;;;;;;5027547;28;87077;-49
2022/04/27 12:25:22;;;;;;;;;;;17.10;58.60;;;;;;5026592;28;88647;-49
2022/04/27 12:27:48;;;;;;;;;;;17.10;58.60;;;;;;5026807;28;87040;-51
2022/04/27 12:30:18;;;;;;;;;;;17.10;58.60;;;;;;5026311;28;87902;-50
2022/04/27 12:32:44;;;;;;;;;;;17.20;58.60;;;;;;5029351;28;87336;-50
2022/04/27 12:37:54;;;;;;;;;;;17.20;58.60;;;;;;5023583;28;86852;-50
2022/04/27 12:40:20;;;;;;;;;;;17.20;58.70;;;;;;5026784;28;86904;-51
2022/04/27 12:43:01;;;;;;;;;;;17.20;58.60;;;;;;5026904;28;88045;-51
2022/04/27 12:45:27;;;;;;;;;;;17.30;58.60;;;;;;5026419;28;88850;-50
2022/04/27 12:47:53;;;;;;;;;;;17.30;58.60;;;;;;5027112;28;86326;-52
2022/04/27 12:50:19;;;;;;;;;;;17.40;58.60;;;;;;5026695;28;87179;-51
2022/04/27 12:52:46;;;;;;;;;;;17.40;58.60;;;;;;5026351;28;88628;-50
2022/04/27 12:55:12;;;;;;;;;;;17.40;58.60;;;;;;5028847;28;87746;-51
2022/04/27 12:57:44;;;;;;;;;;;17.40;58.60;;;;;;5026496;28;87988;-51
2022/04/27 13:00:11;;;;;;;;;;;17.40;58.60;;;;;;5026586;28;86742;-51
2022/04/27 13:02:37;;;;;;;;;;;17.40;58.60;;;;;;5026911;28;86868;-51
2022/04/27 13:05:03;;;;;;;;;;;17.50;58.60;;;;;;5026077;28;88636;-51
2022/04/27 13:07:29;;;;;;;;;;;17.40;58.50;;;;;;5026648;28;86891;-52
2022/04/27 13:12:39;;;;;;;;;;;17.50;58.60;;;;;;5026767;28;86453;-50
2022/04/27 13:15:06;;;;;;;;;;;17.50;58.60;;;;;;5026370;28;86857;-51
2022/04/27 13:17:32;;;;;;;;;;;17.50;58.60;;;;;;5028611;28;88808;-51
2022/04/27 13:19:57;;;;;;;;;;;17.50;58.60;;;;;;5025860;28;88064;-50
2022/04/27 13:22:24;;;;;;;;;;;17.50;58.60;;;;;;5026512;28;87901;-50
2022/04/27 13:24:50;;;;;;;;;;;17.60;58.60;;;;;;5025855;28;88679;-50
2022/04/27 13:27:21;;;;;;;;;;;17.50;58.60;;;;;;5026107;28;87018;-51
2022/04/27 13:29:47;;;;;;;;;;;17.60;58.70;;;;;;5026941;28;87936;-50
2022/04/27 13:32:12;;;;;;;;;;;17.60;58.70;;;;;;5028735;28;87699;-50
2022/04/27 13:34:38;;;;;;;;;;;17.70;58.70;;;;;;5029794;28;86948;-50
2022/04/27 13:37:04;;;;;;;;;;;17.70;58.70;;;;;;5030144;28;87973;-50
2022/04/27 13:39:29;;;;;;;;;;;17.70;58.50;;;;;;5032217;28;88383;-50
2022/04/27 13:41:58;;;;;;;;;;;17.70;58.40;;;;;;5029743;28;87892;-50
2022/04/27 13:44:24;;;;;;;;;;;17.70;58.50;;;;;;5028480;28;88637;-51
2022/04/27 13:46:50;;;;;;;;;;;17.80;58.40;;;;;;5029432;28;87089;-50
2022/04/27 13:49:16;;;;;;;;;;;17.80;58.40;;;;;;5029509;28;87078;-51
2022/04/27 13:51:42;;;;;;;;;;;17.80;58.30;;;;;;5028025;28;87922;-50
2022/04/27 13:54:08;;;;;;;;;;;17.90;58.40;;;;;;5029458;28;86873;-50
2022/04/27 13:56:34;;;;;;;;;;;17.90;58.30;;;;;;5029477;28;87154;-50
2022/04/27 13:58:59;;;;;;;;;;;17.90;58.30;;;;;;5029005;28;88488;-51
2022/04/27 14:01:25;;;;;;;;;;;18.00;58.30;;;;;;5032988;28;86202;-50
2022/04/27 14:03:51;;;;;;;;;;;18.00;58.30;;;;;;5027734;28;87512;-51
2022/04/27 14:06:18;;;;;;;;;;;18.00;58.40;;;;;;5029001;28;86865;-51
2022/04/27 14:08:44;;;;;;;;;;;18.10;58.30;;;;;;5027282;28;87859;-52
2022/04/27 14:13:10;;;;;;;;;;;18.10;58.40;;;;;;5028180;28;88668;-53
2022/04/27 14:13:56;;;;;;;;;;;18.20;58.20;;;;;;5028867;28;86900;-51
2022/04/27 14:19:06;;;;;;;;;;;18.20;58.20;;;;;;5028558;28;87166;-52
2022/04/27 14:21:31;;;;;;;;;;;18.30;58.30;;;;;;5028721;28;87102;-52
2022/04/27 14:23:57;;;;;;;;;;;18.40;58.40;;;;;;5031013;28;87215;-52
2022/04/27 14:26:23;;;;;;;;;;;18.40;58.40;;;;;;5029145;28;86233;-54
2022/04/27 14:28:49;;;;;;;;;;;18.50;58.50;;;;;;5028530;28;87540;-52
2022/04/27 14:31:15;;;;;;;;;;;18.50;58.50;;;;;;5028053;28;88699;-53
2022/04/27 14:33:40;;;;;;;;;;;18.50;58.50;;;;;;5027729;28;87872;-51
2022/04/27 14:36:06;;;;;;;;;;;18.50;58.50;;;;;;5028579;28;86892;-51
2022/04/27 14:38:31;;;;;;;;;;;18.50;58.50;;;;;;5027899;28;88506;-51
2022/04/27 14:40:57;;;;;;;;;;;18.50;58.30;;;;;;5028243;28;86993;-50
2022/04/27 14:43:22;;;;;;;;;;;18.60;58.40;;;;;;5030402;28;87297;-54
2022/04/27 14:45:48;;;;;;;;;;;18.60;58.30;;;;;;5028316;28;86807;-51